Somerton, United Kingdom
Current Conditions -  °F | °C
As of 2:50 PM on Thursday 30 Oct 2014 (Local Time) from EGDY Reporting Station
Haze Haze  
Wind Chill: 63°   Ceiling: Unl
Heat Index: 63°   Visibility: 5mi
Dew Point: 59°   Wind: 9mph
Humidity: 88%   Direction: 180°S
Pressure: 30"   Gusts: NA
Location:  51.06°N, 2.71°W
Report Text: EGDY 301450Z 18008KT 8000 HZ FEW010 17/15 Q1016 BLU BECMG SCT015 WHT
Loading
Personal Weather Stations






























Interactive Weather Map
Tropical Storm Tracking
New forecast layout! Learn more

10-Day Weather Forecast

Advertisements
Track Severe Weather on mobile